Time;durP1;ratioP1;P1;durP2;ratioP2;P2;SDS_P1;SDS_P2;PMS_P1;PMS_P2;Temp;Humidity;BMP_temperature;BMP_pressure;BME280_temperature;BME280_humidity;BME280_pressure;Samples;Min_cycle;Max_cycle;Signal;HPM_P1;HPM_P2
2022/09/11 00:01:27;;;;;;;2.70;1.35;;;;;;;;;;5024939;28;20292;-61
2022/09/11 00:03:55;;;;;;;1.08;1.08;;;;;;;;;;5012393;28;20299;-60
2022/09/11 00:06:22;;;;;;;1.30;1.30;;;;;;;;;;5028092;28;20222;-60
2022/09/11 00:08:52;;;;;;;1.27;1.27;;;;;;;;;;5009745;28;20260;-60
2022/09/11 00:11:22;;;;;;;2.42;1.48;;;;;;;;;;5020914;28;20220;-64
2022/09/11 00:13:50;;;;;;;1.75;1.45;;;;;;;;;;5013825;28;20208;-61
2022/09/11 00:16:21;;;;;;;1.13;1.13;;;;;;;;;;5026190;28;20547;-60
2022/09/11 00:18:48;;;;;;;1.20;1.20;;;;;;;;;;5013674;28;20232;-61
2022/09/11 00:21:15;;;;;;;1.60;1.60;;;;;;;;;;5012698;28;20209;-62
2022/09/11 00:23:42;;;;;;;1.70;1.60;;;;;;;;;;5018036;28;20654;-60
2022/09/11 00:26:10;;;;;;;1.73;1.63;;;;;;;;;;5013364;28;20220;-59
2022/09/11 00:28:38;;;;;;;1.67;1.67;;;;;;;;;;5015439;28;20631;-62
2022/09/11 00:31:06;;;;;;;1.73;1.63;;;;;;;;;;5030194;28;20254;-62
2022/09/11 00:33:34;;;;;;;1.48;1.48;;;;;;;;;;5020146;28;20283;-62
2022/09/11 00:36:02;;;;;;;2.42;1.73;;;;;;;;;;5016755;28;20216;-62
2022/09/11 00:38:31;;;;;;;1.70;1.60;;;;;;;;;;5016818;28;20217;-63
2022/09/11 00:40:59;;;;;;;1.83;1.73;;;;;;;;;;5020207;28;20270;-62
2022/09/11 00:43:26;;;;;;;1.73;1.70;;;;;;;;;;5017334;28;20308;-61
2022/09/11 00:45:57;;;;;;;1.77;1.67;;;;;;;;;;5016819;28;20215;-62
2022/09/11 00:48:25;;;;;;;2.03;1.90;;;;;;;;;;5017272;28;20287;-60
2022/09/11 00:50:54;;;;;;;1.48;1.48;;;;;;;;;;5021827;28;20212;-60
2022/09/11 00:53:23;;;;;;;1.70;1.70;;;;;;;;;;5015920;28;20197;-60
2022/09/11 00:55:52;;;;;;;1.70;1.70;;;;;;;;;;5015556;28;20209;-60
2022/09/11 00:58:20;;;;;;;2.13;2.03;;;;;;;;;;5018873;28;20288;-60
2022/09/11 01:00:48;;;;;;;3.50;2.42;;;;;;;;;;5019631;28;20980;-60
2022/09/11 01:03:17;;;;;;;2.03;1.88;;;;;;;;;;5018037;28;20196;-60
2022/09/11 01:05:44;;;;;;;2.67;2.53;;;;;;;;;;5018842;28;20208;-61
2022/09/11 01:08:11;;;;;;;2.05;1.95;;;;;;;;;;5019007;28;20201;-63
2022/09/11 01:10:42;;;;;;;2.30;2.20;;;;;;;;;;5017822;28;20227;-61
2022/09/11 01:13:11;;;;;;;2.35;2.25;;;;;;;;;;5019027;28;20224;-61
2022/09/11 01:15:42;;;;;;;2.63;2.53;;;;;;;;;;5020203;28;20702;-62
2022/09/11 01:18:13;;;;;;;2.53;2.42;;;;;;;;;;5016370;28;20252;-62
2022/09/11 01:20:49;;;;;;;2.30;2.20;;;;;;;;;;5018781;28;20208;-62
2022/09/11 01:23:22;;;;;;;2.95;2.45;;;;;;;;;;5016421;28;20224;-62
2022/09/11 01:26:01;;;;;;;2.25;2.25;;;;;;;;;;5020204;28;20204;-62
2022/09/11 01:28:34;;;;;;;3.45;3.05;;;;;;;;;;5019122;28;20690;-62
2022/09/11 01:31:05;;;;;;;3.22;2.90;;;;;;;;;;5018116;28;20204;-62
2022/09/11 01:33:38;;;;;;;3.35;3.05;;;;;;;;;;5018385;28;20193;-61
2022/09/11 01:36:06;;;;;;;4.82;3.47;;;;;;;;;;5017384;28;20227;-62
2022/09/11 01:38:35;;;;;;;3.22;2.92;;;;;;;;;;5018147;28;20216;-61
2022/09/11 01:41:06;;;;;;;3.25;2.80;;;;;;;;;;5016330;28;20682;-61
2022/09/11 01:43:36;;;;;;;3.45;3.22;;;;;;;;;;5016835;28;20209;-60
2022/09/11 01:46:06;;;;;;;3.88;3.63;;;;;;;;;;5017968;28;20208;-61
2022/09/11 01:48:37;;;;;;;3.33;3.13;;;;;;;;;;5017062;28;20228;-62
2022/09/11 01:51:06;;;;;;;4.18;3.88;;;;;;;;;;5018018;28;20220;-61
2022/09/11 01:53:37;;;;;;;3.53;3.33;;;;;;;;;;5017300;28;20228;-61
2022/09/11 01:56:07;;;;;;;4.60;3.85;;;;;;;;;;5017302;28;20220;-62
2022/09/11 01:58:36;;;;;;;7.47;5.00;;;;;;;;;;5017478;28;20332;-61
2022/09/11 02:01:05;;;;;;;4.18;3.88;;;;;;;;;;5017320;28;20209;-61
2022/09/11 02:03:36;;;;;;;3.88;3.60;;;;;;;;;;5017540;28;20205;-63
2022/09/11 02:06:05;;;;;;;4.45;4.05;;;;;;;;;;5015096;28;20290;-61
2022/09/11 02:08:38;;;;;;;4.13;3.72;;;;;;;;;;5014133;28;20202;-62
2022/09/11 02:11:07;;;;;;;4.75;4.35;;;;;;;;;;5016263;28;20297;-62
2022/09/11 02:13:38;;;;;;;5.18;4.78;;;;;;;;;;5016742;28;20232;-62
2022/09/11 02:16:08;;;;;;;4.22;3.92;;;;;;;;;;5017257;28;20667;-62
2022/09/11 02:18:39;;;;;;;4.75;4.30;;;;;;;;;;5013646;28;20749;-62
2022/09/11 02:21:12;;;;;;;5.50;5.00;;;;;;;;;;5017833;28;21012;-62
2022/09/11 02:23:40;;;;;;;4.00;3.70;;;;;;;;;;5018041;28;20714;-62
2022/09/11 02:26:08;;;;;;;4.38;4.07;;;;;;;;;;5026204;28;20200;-64
2022/09/11 02:28:37;;;;;;;4.47;4.07;;;;;;;;;;5024029;28;20209;-62
2022/09/11 02:31:04;;;;;;;4.93;4.47;;;;;;;;;;5017939;28;20296;-62
2022/09/11 02:33:32;;;;;;;5.40;4.95;;;;;;;;;;5024807;28;20224;-62
2022/09/11 02:36:04;;;;;;;5.00;4.38;;;;;;;;;;5012557;28;20611;-62
2022/09/11 02:38:35;;;;;;;5.72;5.07;;;;;;;;;;5014672;28;20213;-62
2022/09/11 02:41:07;;;;;;;5.80;4.88;;;;;;;;;;5010925;28;20216;-62
2022/09/11 02:43:42;;;;;;;4.90;4.47;;;;;;;;;;5010968;28;20647;-62
2022/09/11 02:46:18;;;;;;;4.35;4.05;;;;;;;;;;5013810;28;20212;-60
2022/09/11 02:48:47;;;;;;;6.07;5.47;;;;;;;;;;5018942;28;20212;-60
2022/09/11 02:51:18;;;;;;;5.40;4.93;;;;;;;;;;5011015;28;20204;-61
2022/09/11 02:53:50;;;;;;;5.25;4.28;;;;;;;;;;5016370;28;20414;-61
2022/09/11 02:56:20;;;;;;;7.88;5.32;;;;;;;;;;5013437;28;20672;-60
2022/09/11 02:58:50;;;;;;;5.93;5.35;;;;;;;;;;5016657;28;20212;-60
2022/09/11 03:01:17;;;;;;;6.28;5.57;;;;;;;;;;5013127;28;20738;-60
2022/09/11 03:03:45;;;;;;;6.68;5.60;;;;;;;;;;5010301;28;20256;-60
2022/09/11 03:06:14;;;;;;;4.90;4.40;;;;;;;;;;5021726;28;20203;-60
2022/09/11 03:08:41;;;;;;;6.35;5.07;;;;;;;;;;5017014;28;20219;-60
2022/09/11 03:11:09;;;;;;;6.28;5.00;;;;;;;;;;5025456;28;20670;-61
2022/09/11 03:13:36;;;;;;;6.28;5.10;;;;;;;;;;5011422;28;20312;-60
2022/09/11 03:16:06;;;;;;;7.68;5.10;;;;;;;;;;5009276;28;20221;-61
2022/09/11 03:18:34;;;;;;;5.82;4.80;;;;;;;;;;5024873;28;20334;-60
2022/09/11 03:21:02;;;;;;;4.80;4.38;;;;;;;;;;5016290;28;20228;-60
2022/09/11 03:23:29;;;;;;;5.18;4.43;;;;;;;;;;5018828;28;20237;-60
2022/09/11 03:25:57;;;;;;;7.15;6.20;;;;;;;;;;5008949;28;20217;-61
2022/09/11 03:28:24;;;;;;;5.50;4.93;;;;;;;;;;5010305;28;20307;-61
2022/09/11 03:30:52;;;;;;;5.75;5.22;;;;;;;;;;5015423;28;20993;-60
2022/09/11 03:33:21;;;;;;;5.43;4.40;;;;;;;;;;5008940;28;20482;-61
2022/09/11 03:35:48;;;;;;;4.95;4.53;;;;;;;;;;5012455;28;20232;-61
2022/09/11 03:38:15;;;;;;;8.20;5.88;;;;;;;;;;5009189;28;20212;-60
2022/09/11 03:40:43;;;;;;;5.95;5.35;;;;;;;;;;5009969;28;20213;-60
2022/09/11 03:43:11;;;;;;;5.68;5.13;;;;;;;;;;5016851;28;20228;-60
2022/09/11 03:45:38;;;;;;;5.80;4.75;;;;;;;;;;5013594;28;20201;-61
2022/09/11 03:48:06;;;;;;;7.85;5.50;;;;;;;;;;5026684;28;20717;-60
2022/09/11 03:50:34;;;;;;;6.20;5.60;;;;;;;;;;5015035;28;20935;-60
2022/09/11 03:53:02;;;;;;;5.45;4.97;;;;;;;;;;5019881;28;20228;-60
2022/09/11 03:55:30;;;;;;;5.97;5.43;;;;;;;;;;5020570;28;20660;-60
2022/09/11 03:57:58;;;;;;;5.13;4.53;;;;;;;;;;5026109;28;20196;-61
2022/09/11 04:00:25;;;;;;;8.55;5.82;;;;;;;;;;5015207;28;20292;-60
2022/09/11 04:02:54;;;;;;;5.50;5.00;;;;;;;;;;5021992;28;20201;-60
2022/09/11 04:05:22;;;;;;;7.65;6.20;;;;;;;;;;5018928;28;20296;-61
2022/09/11 04:07:52;;;;;;;6.30;5.68;;;;;;;;;;5015275;28;20216;-61
2022/09/11 04:10:19;;;;;;;7.93;5.32;;;;;;;;;;5020728;28;20207;-62
2022/09/11 04:12:47;;;;;;;8.52;6.00;;;;;;;;;;5016983;28;20256;-62
2022/09/11 04:15:14;;;;;;;6.03;5.43;;;;;;;;;;5027364;28;20207;-62
2022/09/11 04:17:41;;;;;;;6.60;5.57;;;;;;;;;;5030691;28;20220;-61
2022/09/11 04:20:09;;;;;;;6.15;5.57;;;;;;;;;;5032381;28;20236;-61
2022/09/11 04:22:36;;;;;;;7.78;6.15;;;;;;;;;;5034143;28;20230;-62
2022/09/11 04:25:06;;;;;;;6.25;5.65;;;;;;;;;;5016312;28;20244;-61
2022/09/11 04:27:33;;;;;;;6.88;5.45;;;;;;;;;;5018829;28;20235;-62
2022/09/11 04:30:00;;;;;;;9.18;6.35;;;;;;;;;;5033306;28;20313;-62
2022/09/11 04:32:28;;;;;;;6.20;5.60;;;;;;;;;;5023076;28;20236;-61
2022/09/11 04:34:56;;;;;;;7.05;5.35;;;;;;;;;;5030660;28;20211;-61
2022/09/11 04:37:23;;;;;;;9.10;6.25;;;;;;;;;;5032742;28;20204;-61
2022/09/11 04:39:50;;;;;;;6.93;5.70;;;;;;;;;;5029989;28;20208;-61
2022/09/11 04:42:18;;;;;;;6.53;5.32;;;;;;;;;;5022287;28;20204;-61
2022/09/11 04:44:45;;;;;;;5.85;5.15;;;;;;;;;;5015292;28;20216;-62
2022/09/11 04:47:13;;;;;;;6.18;5.55;;;;;;;;;;5021381;28;20296;-61
2022/09/11 04:49:40;;;;;;;8.35;6.07;;;;;;;;;;5020082;28;20231;-62
2022/09/11 04:52:07;;;;;;;7.97;5.35;;;;;;;;;;5030306;28;20240;-62
2022/09/11 04:54:35;;;;;;;8.07;6.15;;;;;;;;;;5022979;28;20207;-61
2022/09/11 04:57:03;;;;;;;8.93;6.30;;;;;;;;;;5012758;28;20300;-61
2022/09/11 04:59:31;;;;;;;9.65;6.20;;;;;;;;;;5013054;28;20204;-61
2022/09/11 05:01:58;;;;;;;7.28;6.35;;;;;;;;;;5026722;28;20228;-61
2022/09/11 05:04:25;;;;;;;9.27;6.15;;;;;;;;;;5025201;28;20295;-61
2022/09/11 05:07:00;;;;;;;6.03;5.00;;;;;;;;;;5023197;28;20205;-62
2022/09/11 05:09:27;;;;;;;7.45;6.45;;;;;;;;;;5011420;28;20300;-61
2022/09/11 05:11:55;;;;;;;7.97;5.57;;;;;;;;;;5013189;28;20217;-61
2022/09/11 05:14:22;;;;;;;7.63;6.00;;;;;;;;;;5019568;28;20217;-61
2022/09/11 05:16:51;;;;;;;6.63;5.80;;;;;;;;;;5017493;28;20231;-61
2022/09/11 05:19:18;;;;;;;8.38;6.47;;;;;;;;;;5025883;28;20328;-61
2022/09/11 05:21:45;;;;;;;10.10;6.80;;;;;;;;;;5024542;28;20631;-61
2022/09/11 05:24:13;;;;;;;10.48;6.88;;;;;;;;;;5024014;28;20243;-61
2022/09/11 05:26:40;;;;;;;8.45;6.20;;;;;;;;;;5018123;28;20220;-61
2022/09/11 05:29:08;;;;;;;7.68;5.65;;;;;;;;;;5018044;28;20201;-61
2022/09/11 05:31:35;;;;;;;8.13;6.43;;;;;;;;;;5015361;28;20258;-62
2022/09/11 05:34:04;;;;;;;7.85;6.35;;;;;;;;;;5015674;28;20257;-61
2022/09/11 05:36:31;;;;;;;6.53;5.82;;;;;;;;;;5014128;28;20205;-61
2022/09/11 05:38:59;;;;;;;11.57;7.07;;;;;;;;;;5011742;28;20200;-60
2022/09/11 05:41:26;;;;;;;9.80;6.82;;;;;;;;;;5011042;28;20204;-61
2022/09/11 05:43:53;;;;;;;11.27;7.22;;;;;;;;;;5012688;28;20221;-61
2022/09/11 05:46:21;;;;;;;7.63;6.57;;;;;;;;;;5020328;28;20203;-61
2022/09/11 05:48:48;;;;;;;7.93;6.13;;;;;;;;;;5012839;28;20216;-61
2022/09/11 05:51:18;;;;;;;9.43;6.88;;;;;;;;;;5010795;28;20212;-61
2022/09/11 05:53:46;;;;;;;8.70;6.32;;;;;;;;;;5013124;28;20221;-61
2022/09/11 05:56:14;;;;;;;9.40;6.57;;;;;;;;;;5014863;28;20224;-62
2022/09/11 05:58:42;;;;;;;9.88;7.28;;;;;;;;;;5019787;28;20219;-61
2022/09/11 06:01:10;;;;;;;9.65;6.88;;;;;;;;;;5017670;28;20295;-61
2022/09/11 06:03:37;;;;;;;9.48;6.47;;;;;;;;;;5019635;28;20205;-61
2022/09/11 06:06:06;;;;;;;10.40;6.78;;;;;;;;;;5011565;28;20204;-61
2022/09/11 06:08:35;;;;;;;10.00;6.20;;;;;;;;;;5010892;28;20205;-62
2022/09/11 06:11:04;;;;;;;11.35;7.15;;;;;;;;;;5019735;28;20734;-61
2022/09/11 06:13:32;;;;;;;8.55;6.88;;;;;;;;;;5020187;28;20236;-60
2022/09/11 06:16:01;;;;;;;10.10;6.78;;;;;;;;;;5014780;28;20201;-61
2022/09/11 06:18:28;;;;;;;16.63;7.78;;;;;;;;;;5017039;28;20235;-62
2022/09/11 06:20:56;;;;;;;10.60;7.45;;;;;;;;;;5013856;28;20271;-62
2022/09/11 06:23:23;;;;;;;11.50;7.35;;;;;;;;;;5013416;28;20307;-61
2022/09/11 06:25:53;;;;;;;11.95;7.90;;;;;;;;;;5012276;28;20209;-61
2022/09/11 06:28:21;;;;;;;15.30;7.85;;;;;;;;;;5013194;28;20212;-61
2022/09/11 06:30:48;;;;;;;9.43;6.43;;;;;;;;;;5011604;28;20208;-61
2022/09/11 06:33:15;;;;;;;8.27;6.63;;;;;;;;;;5020876;28;20810;-61
2022/09/11 06:35:43;;;;;;;10.85;7.55;;;;;;;;;;5025399;28;20205;-61
2022/09/11 06:38:10;;;;;;;11.35;7.10;;;;;;;;;;5010705;28;20304;-61
2022/09/11 06:40:37;;;;;;;13.93;6.63;;;;;;;;;;5018069;28;20675;-61
2022/09/11 06:43:06;;;;;;;10.68;7.10;;;;;;;;;;5023071;28;20208;-61
2022/09/11 06:45:33;;;;;;;9.35;6.38;;;;;;;;;;5024087;28;20200;-62
2022/09/11 06:48:00;;;;;;;10.95;7.90;;;;;;;;;;5021556;28;20209;-61
2022/09/11 06:50:27;;;;;;;9.65;7.00;;;;;;;;;;5013943;28;20201;-60
2022/09/11 06:52:54;;;;;;;14.73;8.85;;;;;;;;;;5012851;28;20466;-61
2022/09/11 06:55:21;;;;;;;12.13;8.20;;;;;;;;;;5016454;28;20200;-63
2022/09/11 06:57:48;;;;;;;13.73;8.93;;;;;;;;;;5011599;28;20310;-62
2022/09/11 07:00:17;;;;;;;11.52;8.57;;;;;;;;;;5021528;28;20293;-61
2022/09/11 07:02:45;;;;;;;14.48;9.00;;;;;;;;;;5013177;28;20211;-61
2022/09/11 07:05:12;;;;;;;11.65;8.55;;;;;;;;;;5015557;28;20205;-61
2022/09/11 07:07:40;;;;;;;11.55;8.40;;;;;;;;;;5018263;28;20201;-62
2022/09/11 07:10:09;;;;;;;11.57;7.88;;;;;;;;;;5020072;28;20208;-62
2022/09/11 07:12:38;;;;;;;15.07;8.63;;;;;;;;;;5010558;28;20209;-62
2022/09/11 07:15:06;;;;;;;12.98;7.90;;;;;;;;;;5012831;28;20319;-62
2022/09/11 07:17:35;;;;;;;9.25;7.47;;;;;;;;;;5026344;28;20227;-62
2022/09/11 07:20:02;;;;;;;10.88;6.85;;;;;;;;;;5018967;28;20526;-62
2022/09/11 07:22:29;;;;;;;7.93;6.28;;;;;;;;;;5022070;28;20220;-62
2022/09/11 07:24:57;;;;;;;7.68;6.18;;;;;;;;;;5016027;28;20232;-62
2022/09/11 07:27:24;;;;;;;6.47;5.80;;;;;;;;;;5016965;28;20232;-60
2022/09/11 07:29:51;;;;;;;8.43;5.85;;;;;;;;;;5014762;28;20212;-60
2022/09/11 07:32:18;;;;;;;7.55;6.30;;;;;;;;;;5008360;28;20216;-61
2022/09/11 07:34:48;;;;;;;8.23;5.95;;;;;;;;;;5007999;28;20231;-61
2022/09/11 07:37:15;;;;;;;7.10;5.25;;;;;;;;;;5014300;28;20811;-62
2022/09/11 07:39:42;;;;;;;5.57;5.07;;;;;;;;;;5010530;28;20207;-62
2022/09/11 07:42:09;;;;;;;9.38;5.75;;;;;;;;;;5019705;28;20208;-61
2022/09/11 07:44:36;;;;;;;6.63;6.00;;;;;;;;;;5014411;28;20220;-61
2022/09/11 07:47:04;;;;;;;5.85;5.25;;;;;;;;;;5008038;28;20296;-61
2022/09/11 07:49:31;;;;;;;6.80;5.88;;;;;;;;;;5009505;28;20287;-61
2022/09/11 07:52:02;;;;;;;6.05;5.35;;;;;;;;;;5016278;28;20247;-61
2022/09/11 07:54:29;;;;;;;11.10;6.28;;;;;;;;;;5016744;28;20223;-61
2022/09/11 07:56:57;;;;;;;6.78;5.65;;;;;;;;;;5019106;28;20204;-61
2022/09/11 07:59:24;;;;;;;7.35;5.78;;;;;;;;;;5017594;28;20215;-61
2022/09/11 08:01:51;;;;;;;7.28;5.88;;;;;;;;;;5021683;28;20666;-61
2022/09/11 08:04:19;;;;;;;11.35;6.30;;;;;;;;;;5014509;28;20805;-62
2022/09/11 08:06:46;;;;;;;10.05;6.25;;;;;;;;;;5013248;28;20197;-61
2022/09/11 08:09:15;;;;;;;8.70;6.18;;;;;;;;;;5021801;28;20245;-61
2022/09/11 08:11:43;;;;;;;10.90;6.95;;;;;;;;;;5007979;28;20207;-61
2022/09/11 08:14:13;;;;;;;12.25;7.53;;;;;;;;;;5008317;28;20257;-61
2022/09/11 08:16:40;;;;;;;10.43;7.57;;;;;;;;;;5018757;28;20207;-62
2022/09/11 08:19:08;;;;;;;15.40;7.10;;;;;;;;;;5008233;28;20666;-60
2022/09/11 08:21:35;;;;;;;12.30;6.97;;;;;;;;;;5008185;28;20356;-62
2022/09/11 08:24:03;;;;;;;13.70;7.57;;;;;;;;;;5008996;28;20224;-63
2022/09/11 08:26:32;;;;;;;14.20;7.25;;;;;;;;;;5008305;28;20298;-61
2022/09/11 08:29:00;;;;;;;12.57;7.57;;;;;;;;;;5009178;28;20585;-65
2022/09/11 08:31:28;;;;;;;11.90;7.18;;;;;;;;;;5020792;28;20218;-61
2022/09/11 08:33:55;;;;;;;9.65;6.90;;;;;;;;;;5028217;28;20247;-61
2022/09/11 08:36:23;;;;;;;10.15;6.85;;;;;;;;;;5031634;28;20204;-61
2022/09/11 08:38:50;;;;;;;10.32;6.95;;;;;;;;;;5027591;28;20209;-60
2022/09/11 08:41:22;;;;;;;9.75;6.60;;;;;;;;;;5011877;28;20208;-60
2022/09/11 08:43:53;;;;;;;14.50;7.22;;;;;;;;;;5014574;28;20208;-59
2022/09/11 08:46:22;;;;;;;9.70;6.80;;;;;;;;;;5031714;28;20216;-60
2022/09/11 08:48:53;;;;;;;11.57;7.68;;;;;;;;;;5020977;28;20213;-61
2022/09/11 08:51:20;;;;;;;10.50;7.55;;;;;;;;;;5011524;28;20598;-60
2022/09/11 08:53:47;;;;;;;12.25;7.50;;;;;;;;;;5020485;28;20905;-61
2022/09/11 08:56:17;;;;;;;12.93;7.10;;;;;;;;;;5031534;28;20223;-61
2022/09/11 08:58:49;;;;;;;13.07;7.95;;;;;;;;;;5020426;28;20215;-60
2022/09/11 09:01:23;;;;;;;10.05;7.13;;;;;;;;;;5011496;28;20205;-60
2022/09/11 09:03:55;;;;;;;10.70;7.25;;;;;;;;;;5022457;28;20213;-61
2022/09/11 09:06:33;;;;;;;10.50;6.93;;;;;;;;;;5031066;28;20212;-60
2022/09/11 09:09:03;;;;;;;13.25;7.47;;;;;;;;;;5018846;28;20584;-60
2022/09/11 09:11:35;;;;;;;11.73;7.47;;;;;;;;;;5028575;28;20208;-60
2022/09/11 09:14:12;;;;;;;13.70;7.53;;;;;;;;;;5030099;28;20692;-60
2022/09/11 09:16:45;;;;;;;13.40;7.65;;;;;;;;;;5031329;28;20208;-62
2022/09/11 09:19:14;;;;;;;14.20;8.40;;;;;;;;;;5014934;28;20237;-62
2022/09/11 09:21:44;;;;;;;11.35;7.65;;;;;;;;;;5029683;28;20293;-61
2022/09/11 09:24:24;;;;;;;14.07;7.90;;;;;;;;;;5010338;28;20606;-61
2022/09/11 09:26:52;;;;;;;11.35;6.97;;;;;;;;;;5008717;28;20672;-61
2022/09/11 09:29:21;;;;;;;12.40;7.75;;;;;;;;;;5009550;28;20220;-61
2022/09/11 09:31:51;;;;;;;13.23;7.57;;;;;;;;;;5025009;28;20247;-62
2022/09/11 09:34:20;;;;;;;13.50;8.40;;;;;;;;;;5018903;28;20583;-61
2022/09/11 09:36:50;;;;;;;10.70;6.90;;;;;;;;;;5009382;28;20223;-61
2022/09/11 09:39:18;;;;;;;10.88;6.85;;;;;;;;;;5009708;28;20248;-61
2022/09/11 09:42:04;;;;;;;9.60;6.82;;;;;;;;;;5009392;28;20213;-62
2022/09/11 09:44:38;;;;;;;11.90;6.70;;;;;;;;;;5017297;28;20865;-62
2022/09/11 09:47:10;;;;;;;10.48;6.68;;;;;;;;;;5028949;28;20696;-62
2022/09/11 09:49:38;;;;;;;9.82;6.55;;;;;;;;;;5014263;28;20217;-62
2022/09/11 09:52:14;;;;;;;8.05;6.32;;;;;;;;;;5009063;28;20680;-62
2022/09/11 09:54:41;;;;;;;10.02;6.05;;;;;;;;;;5017719;28;20677;-62
2022/09/11 09:57:10;;;;;;;10.48;5.70;;;;;;;;;;5029298;28;20220;-62
2022/09/11 09:59:40;;;;;;;8.02;5.75;;;;;;;;;;5013235;28;20296;-62
2022/09/11 10:02:08;;;;;;;7.40;6.60;;;;;;;;;;5008854;28;20259;-62
2022/09/11 10:04:35;;;;;;;8.25;6.40;;;;;;;;;;5013869;28;20205;-62
2022/09/11 10:07:07;;;;;;;6.18;5.57;;;;;;;;;;5028850;28;20208;-62
2022/09/11 10:09:34;;;;;;;8.23;5.88;;;;;;;;;;5028319;28;20204;-61
2022/09/11 10:12:02;;;;;;;5.85;5.28;;;;;;;;;;5028410;28;20220;-61
2022/09/11 10:14:32;;;;;;;6.25;5.75;;;;;;;;;;5021651;28;20707;-64
2022/09/11 10:16:59;;;;;;;6.93;5.60;;;;;;;;;;5008948;28;20303;-61
2022/09/11 10:19:41;;;;;;;9.30;6.07;;;;;;;;;;5008328;28;20317;-61
2022/09/11 10:22:28;;;;;;;5.55;5.03;;;;;;;;;;5020711;28;20675;-61
2022/09/11 10:25:03;;;;;;;7.65;5.70;;;;;;;;;;5009704;28;20237;-61
2022/09/11 10:27:34;;;;;;;6.88;5.55;;;;;;;;;;5022715;28;20207;-61
2022/09/11 10:30:01;;;;;;;7.55;5.38;;;;;;;;;;5015362;28;20205;-61
2022/09/11 10:32:28;;;;;;;5.65;5.15;;;;;;;;;;5008214;28;20216;-59
2022/09/11 10:34:58;;;;;;;6.68;5.55;;;;;;;;;;5007855;28;20239;-59
2022/09/11 10:37:26;;;;;;;6.85;5.05;;;;;;;;;;5007505;28;20201;-59
2022/09/11 10:39:56;;;;;;;10.57;5.55;;;;;;;;;;5013820;28;20369;-59
2022/09/11 10:42:26;;;;;;;6.28;5.05;;;;;;;;;;5005068;28;20271;-59
2022/09/11 10:44:53;;;;;;;4.93;4.53;;;;;;;;;;5007901;28;20235;-59
2022/09/11 10:47:23;;;;;;;4.97;4.35;;;;;;;;;;5007999;28;20694;-60
2022/09/11 10:49:51;;;;;;;6.47;3.97;;;;;;;;;;5008023;28;20217;-59
2022/09/11 10:52:21;;;;;;;4.03;3.72;;;;;;;;;;5007520;28;20313;-59
2022/09/11 10:54:57;;;;;;;3.97;3.67;;;;;;;;;;5018784;28;20260;-60
2022/09/11 10:57:27;;;;;;;4.07;3.67;;;;;;;;;;5007684;28;20339;-60
2022/09/11 10:59:58;;;;;;;3.90;3.60;;;;;;;;;;5007218;28;20205;-60
2022/09/11 11:02:29;;;;;;;7.57;3.63;;;;;;;;;;5007453;28;20217;-59
2022/09/11 11:04:56;;;;;;;3.58;3.28;;;;;;;;;;5007616;28;20209;-59
2022/09/11 11:07:35;;;;;;;3.35;2.97;;;;;;;;;;5008687;28;20220;-60
2022/09/11 11:10:14;;;;;;;3.15;2.95;;;;;;;;;;5018889;28;20255;-61
2022/09/11 11:12:45;;;;;;;5.32;3.47;;;;;;;;;;5007564;28;20209;-61
2022/09/11 11:15:30;;;;;;;3.67;3.47;;;;;;;;;;5007594;28;20722;-60
2022/09/11 11:18:06;;;;;;;3.70;3.50;;;;;;;;;;5007095;28;20368;-61
2022/09/11 11:20:37;;;;;;;3.78;3.47;;;;;;;;;;5007752;28;20327;-61
2022/09/11 11:23:19;;;;;;;2.85;2.58;;;;;;;;;;5007382;28;20599;-61
2022/09/11 11:25:53;;;;;;;3.13;2.92;;;;;;;;;;5007598;28;20212;-61
2022/09/11 11:28:27;;;;;;;3.58;3.20;;;;;;;;;;5007148;28;20213;-61
2022/09/11 11:30:59;;;;;;;2.88;2.70;;;;;;;;;;5017023;28;20694;-61
2022/09/11 11:33:38;;;;;;;4.80;3.40;;;;;;;;;;5027408;28;20229;-61
2022/09/11 11:36:08;;;;;;;4.78;3.30;;;;;;;;;;5026895;28;20389;-61
2022/09/11 11:38:39;;;;;;;3.55;3.25;;;;;;;;;;5026837;28;20224;-60
2022/09/11 11:41:08;;;;;;;5.05;3.63;;;;;;;;;;5017726;28;20244;-60
2022/09/11 11:43:39;;;;;;;4.97;3.63;;;;;;;;;;5026746;28;20299;-61
2022/09/11 11:46:10;;;;;;;3.22;3.03;;;;;;;;;;5027012;28;20216;-61
2022/09/11 11:48:43;;;;;;;3.45;3.13;;;;;;;;;;5019970;28;20774;-61
2022/09/11 11:51:12;;;;;;;3.50;3.20;;;;;;;;;;5020061;28;20239;-61
2022/09/11 11:53:43;;;;;;;3.90;3.63;;;;;;;;;;5026595;28;20219;-61
2022/09/11 11:56:15;;;;;;;4.35;3.95;;;;;;;;;;5026848;28;20235;-62
2022/09/11 11:58:46;;;;;;;4.70;4.40;;;;;;;;;;5020204;28;20663;-61
2022/09/11 12:01:17;;;;;;;3.63;3.33;;;;;;;;;;5018191;28;20327;-61
2022/09/11 12:03:47;;;;;;;4.32;4.03;;;;;;;;;;5026714;28;20211;-61
2022/09/11 12:06:14;;;;;;;4.28;3.88;;;;;;;;;;5028054;28;20207;-61
2022/09/11 12:08:46;;;;;;;4.25;3.95;;;;;;;;;;5030497;28;20678;-60
2022/09/11 12:11:14;;;;;;;3.75;3.53;;;;;;;;;;5020847;28;20208;-60
2022/09/11 12:13:43;;;;;;;6.18;4.50;;;;;;;;;;5015685;28;20213;-59
2022/09/11 12:16:16;;;;;;;5.63;3.97;;;;;;;;;;5017391;28;20236;-60
2022/09/11 12:19:03;;;;;;;4.90;4.45;;;;;;;;;;5009134;28;20225;-60
2022/09/11 12:21:37;;;;;;;9.40;4.60;;;;;;;;;;5015019;28;20219;-60
2022/09/11 12:24:17;;;;;;;4.50;4.05;;;;;;;;;;5029766;28;20235;-59
2022/09/11 12:26:44;;;;;;;4.60;4.20;;;;;;;;;;5029169;28;20614;-60
2022/09/11 12:29:38;;;;;;;4.50;4.10;;;;;;;;;;5021872;28;20292;-59
2022/09/11 12:32:19;;;;;;;3.78;3.47;;;;;;;;;;4984479;28;20209;-59
2022/09/11 12:34:58;;;;;;;3.70;3.40;;;;;;;;;;5029936;28;20208;-59
2022/09/11 12:37:30;;;;;;;4.15;3.78;;;;;;;;;;5023929;28;20197;-60
2022/09/11 12:40:03;;;;;;;4.82;4.10;;;;;;;;;;5009443;28;20339;-60
2022/09/11 12:42:48;;;;;;;4.28;3.42;;;;;;;;;;5015514;28;20694;-60
2022/09/11 12:45:33;;;;;;;3.92;3.50;;;;;;;;;;5016198;28;20223;-61
2022/09/11 12:48:06;;;;;;;4.32;3.97;;;;;;;;;;5015126;28;20714;-60
2022/09/11 12:50:33;;;;;;;3.75;3.50;;;;;;;;;;5023629;28;20309;-60
2022/09/11 12:53:02;;;;;;;5.18;3.45;;;;;;;;;;5027652;28;20212;-60
2022/09/11 12:55:38;;;;;;;4.47;4.07;;;;;;;;;;5029153;28;20338;-60
2022/09/11 12:58:06;;;;;;;3.80;3.45;;;;;;;;;;5010616;28;20244;-61
2022/09/11 13:00:42;;;;;;;3.42;3.22;;;;;;;;;;5013366;28;20229;-60
2022/09/11 13:03:16;;;;;;;4.10;3.65;;;;;;;;;;5030313;28;20295;-60
2022/09/11 13:05:44;;;;;;;3.90;3.60;;;;;;;;;;5026144;28;20201;-60
2022/09/11 13:08:15;;;;;;;4.10;3.75;;;;;;;;;;5009153;28;20212;-60
2022/09/11 13:10:45;;;;;;;3.67;3.38;;;;;;;;;;5012413;28;20205;-61
2022/09/11 13:13:27;;;;;;;3.78;3.45;;;;;;;;;;5030557;28;20587;-61
2022/09/11 13:15:56;;;;;;;3.83;3.40;;;;;;;;;;5024158;28;20289;-61
2022/09/11 13:18:25;;;;;;;3.40;3.17;;;;;;;;;;5013136;28;20255;-60
2022/09/11 13:20:59;;;;;;;4.05;3.75;;;;;;;;;;5023034;28;20220;-61
2022/09/11 13:23:26;;;;;;;4.88;4.10;;;;;;;;;;5008785;28;20239;-62
2022/09/11 13:25:56;;;;;;;3.70;3.40;;;;;;;;;;5010253;28;20216;-61
2022/09/11 13:28:25;;;;;;;3.75;3.45;;;;;;;;;;5026445;28;20211;-62
2022/09/11 13:30:54;;;;;;;3.47;3.17;;;;;;;;;;5010365;28;20414;-62
2022/09/11 13:33:27;;;;;;;3.28;3.10;;;;;;;;;;5009679;28;20216;-61
2022/09/11 13:35:56;;;;;;;3.75;3.55;;;;;;;;;;5010503;28;20287;-63
2022/09/11 13:38:24;;;;;;;3.47;3.28;;;;;;;;;;5013551;28;20233;-64
2022/09/11 13:40:54;;;;;;;4.35;3.95;;;;;;;;;;5009450;28;20569;-62
2022/09/11 13:43:25;;;;;;;3.78;3.47;;;;;;;;;;5026463;28;20792;-62
2022/09/11 13:46:07;;;;;;;3.30;3.10;;;;;;;;;;5026175;28;20748;-63
2022/09/11 13:48:35;;;;;;;3.22;3.03;;;;;;;;;;5016990;28;20220;-63
2022/09/11 13:51:03;;;;;;;2.83;2.67;;;;;;;;;;5008667;28;20696;-62
2022/09/11 13:53:31;;;;;;;3.40;3.10;;;;;;;;;;5008772;28;20213;-62
2022/09/11 13:55:58;;;;;;;2.58;2.47;;;;;;;;;;5025532;28;20228;-63
2022/09/11 13:58:31;;;;;;;3.55;3.15;;;;;;;;;;5008117;28;20216;-63
2022/09/11 14:01:09;;;;;;;3.10;2.75;;;;;;;;;;5008735;28;20217;-63
2022/09/11 14:03:37;;;;;;;3.15;2.95;;;;;;;;;;5008440;28;20595;-63
2022/09/11 14:06:09;;;;;;;3.00;2.80;;;;;;;;;;5008733;28;20684;-63
2022/09/11 14:08:38;;;;;;;3.03;2.55;;;;;;;;;;5009414;28;20205;-63
2022/09/11 14:11:07;;;;;;;2.75;2.65;;;;;;;;;;5008331;28;20684;-63
2022/09/11 14:13:36;;;;;;;3.08;2.88;;;;;;;;;;5008019;28;20217;-63
2022/09/11 14:16:05;;;;;;;4.35;3.00;;;;;;;;;;5008161;28;20233;-63
2022/09/11 14:18:35;;;;;;;3.35;3.15;;;;;;;;;;5013618;28;20320;-63
2022/09/11 14:21:04;;;;;;;3.17;3.00;;;;;;;;;;5020588;28;20208;-63
2022/09/11 14:23:31;;;;;;;3.22;2.95;;;;;;;;;;5028565;28;20746;-62
2022/09/11 14:26:05;;;;;;;3.00;2.80;;;;;;;;;;5012882;28;20209;-63
2022/09/11 14:28:43;;;;;;;2.88;2.67;;;;;;;;;;5010643;28;20213;-63
2022/09/11 14:31:12;;;;;;;3.30;2.50;;;;;;;;;;5008526;28;20217;-64
2022/09/11 14:33:39;;;;;;;6.32;2.80;;;;;;;;;;5009111;28;20201;-64
2022/09/11 14:36:10;;;;;;;2.88;2.65;;;;;;;;;;5016597;28;20705;-63
2022/09/11 14:38:39;;;;;;;2.92;2.72;;;;;;;;;;5011337;28;20209;-63
2022/09/11 14:41:07;;;;;;;2.50;2.40;;;;;;;;;;5007803;28;20262;-63
2022/09/11 14:43:35;;;;;;;3.10;2.90;;;;;;;;;;5008157;28;20209;-63
2022/09/11 14:46:03;;;;;;;2.60;2.38;;;;;;;;;;5008284;28;20216;-64
2022/09/11 14:48:31;;;;;;;2.78;2.67;;;;;;;;;;5008184;28;20217;-63
2022/09/11 14:50:59;;;;;;;2.30;2.20;;;;;;;;;;5007862;28;20205;-64
2022/09/11 14:53:32;;;;;;;2.97;2.78;;;;;;;;;;5007963;28;20209;-63
2022/09/11 14:56:00;;;;;;;2.38;2.28;;;;;;;;;;5011941;28;20228;-64